Time;durP1;ratioP1;P1;durP2;ratioP2;P2;SDS_P1;SDS_P2;PMS_P1;PMS_P2;Temp;Humidity;BMP_temperature;BMP_pressure;BME280_temperature;BME280_humidity;BME280_pressure;Samples;Min_cycle;Max_cycle;Signal;HPM_P1;HPM_P2
2021/12/10 00:01:12;;;;;;;6.60;5.00;;;5.10;99.90;;;;;;5018179;28;20198;-83
2021/12/10 00:03:44;;;;;;;7.60;4.50;;;5.10;99.90;;;;;;5017537;28;20431;-83
2021/12/10 00:06:17;;;;;;;10.30;5.53;;;5.10;99.90;;;;;;5019073;28;20404;-84
2021/12/10 00:08:46;;;;;;;7.60;4.43;;;5.10;99.90;;;;;;5017896;28;20414;-84
2021/12/10 00:11:24;;;;;;;8.73;5.23;;;5.10;99.90;;;;;;5017466;28;20434;-83
2021/12/10 00:13:51;;;;;;;9.93;4.97;;;5.00;99.90;;;;;;5017172;28;20425;-83
2021/12/10 00:16:18;;;;;;;10.37;4.80;;;5.00;99.90;;;;;;5017402;28;20426;-83
2021/12/10 00:18:52;;;;;;;7.50;5.00;;;4.90;99.90;;;;;;5017247;28;20513;-83
2021/12/10 00:21:18;;;;;;;8.87;4.93;;;4.90;99.90;;;;;;5033466;28;20944;-83
2021/12/10 00:23:48;;;;;;;6.83;4.47;;;4.80;99.90;;;;;;5016975;28;20512;-83
2021/12/10 00:26:14;;;;;;;7.10;4.67;;;4.60;99.90;;;;;;5016912;28;20796;-83
2021/12/10 00:28:40;;;;;;;7.47;4.77;;;4.60;99.90;;;;;;5032483;28;20506;-84
2021/12/10 00:31:30;;;;;;;8.60;4.50;;;4.50;99.90;;;;;;5034984;28;20245;-83
2021/12/10 00:34:04;;;;;;;5.50;3.90;;;4.50;99.90;;;;;;5026784;28;20433;-84
2021/12/10 00:36:33;;;;;;;5.87;4.13;;;4.40;99.90;;;;;;5055666;22;20507;-85
2021/12/10 00:39:01;;;;;;;10.03;5.57;;;4.30;99.90;;;;;;5031487;28;20435;-85
2021/12/10 00:41:27;;;;;;;8.43;4.27;;;4.30;99.90;;;;;;5030334;28;20456;-85
2021/12/10 00:43:53;;;;;;;6.70;4.00;;;4.30;99.90;;;;;;5031955;28;20418;-85
2021/12/10 00:46:20;;;;;;;8.57;4.67;;;4.20;99.90;;;;;;5030597;28;20530;-85
2021/12/10 00:48:46;;;;;;;7.30;5.00;;;4.20;99.90;;;;;;5031871;28;20275;-83
2021/12/10 00:51:14;;;;;;;6.33;3.83;;;4.20;99.90;;;;;;5030214;28;20458;-83
2021/12/10 00:53:41;;;;;;;7.30;4.30;;;4.20;99.90;;;;;;5031829;28;20404;-85
2021/12/10 00:56:07;;;;;;;6.57;3.90;;;4.10;99.90;;;;;;5030813;28;20447;-85
2021/12/10 00:58:34;;;;;;;9.73;4.40;;;4.10;99.90;;;;;;5032578;28;20442;-85
2021/12/10 01:01:07;;;;;;;5.90;4.90;;;4.10;99.90;;;;;;5034309;28;20870;-84
2021/12/10 01:03:37;;;;;;;7.30;4.30;;;4.10;99.90;;;;;;5034938;28;20431;-85
2021/12/10 01:06:07;;;;;;;11.20;4.70;;;4.10;99.90;;;;;;5034728;28;20435;-85
2021/12/10 01:08:34;;;;;;;10.77;4.10;;;4.10;99.90;;;;;;5034529;28;20416;-85
2021/12/10 01:11:06;;;;;;;8.13;4.73;;;4.10;99.90;;;;;;5034202;28;20430;-83
2021/12/10 01:13:36;;;;;;;9.40;5.17;;;4.00;99.90;;;;;;5034298;28;20962;-85
2021/12/10 01:27:08;;;;;;;7.03;3.50;;;4.00;99.90;;;;;;5035682;28;20431;-85
2021/12/10 01:29:39;;;;;;;10.37;4.23;;;4.00;99.90;;;;;;5033834;28;20226;-85
2021/12/10 01:32:09;;;;;;;6.57;4.00;;;4.10;99.90;;;;;;5034053;28;20447;-84
2021/12/10 01:34:35;;;;;;;6.47;3.77;;;4.10;99.90;;;;;;5033794;28;20415;-84
2021/12/10 01:37:02;;;;;;;9.30;4.50;;;4.10;99.90;;;;;;5034024;28;20459;-84
2021/12/10 01:39:31;;;;;;;6.20;3.67;;;4.10;99.90;;;;;;5033610;28;20915;-85
2021/12/10 01:42:12;;;;;;;6.80;4.30;;;4.10;99.90;;;;;;5034503;28;20520;-85
2021/12/10 01:44:42;;;;;;;6.23;3.50;;;4.20;99.90;;;;;;5033834;28;20519;-86
2021/12/10 01:47:15;;;;;;;10.50;4.40;;;4.30;99.90;;;;;;5035155;28;20431;-85
2021/12/10 01:49:43;;;;;;;5.13;3.60;;;4.40;99.90;;;;;;5033476;28;20425;-85
2021/12/10 01:52:09;;;;;;;4.80;3.27;;;4.50;99.90;;;;;;5033387;28;20450;-85
2021/12/10 01:54:42;;;;;;;5.63;3.40;;;4.50;99.90;;;;;;5033596;28;20417;-86
2021/12/10 01:57:11;;;;;;;9.90;3.80;;;4.60;99.90;;;;;;5033428;28;20439;-85
2021/12/10 01:59:38;;;;;;;8.40;3.37;;;4.70;99.90;;;;;;5033273;28;20418;-85
2021/12/10 02:02:10;;;;;;;5.83;3.07;;;4.70;99.90;;;;;;5033466;28;20473;-84
2021/12/10 02:04:37;;;;;;;7.10;2.90;;;4.60;99.90;;;;;;5034715;28;20424;-86
2021/12/10 02:07:05;;;;;;;5.93;3.30;;;4.50;99.90;;;;;;5033212;28;20432;-85
2021/12/10 02:09:31;;;;;;;5.30;3.27;;;4.50;99.90;;;;;;5032565;28;20514;-84
2021/12/10 02:11:57;;;;;;;7.03;3.47;;;4.50;99.90;;;;;;5033047;28;20546;-85
2021/12/10 02:14:22;;;;;;;6.07;3.00;;;4.40;99.90;;;;;;5033199;28;20538;-85
2021/12/10 02:16:51;;;;;;;10.63;3.40;;;4.40;99.90;;;;;;5032989;28;20235;-85
2021/12/10 02:19:17;;;;;;;6.03;2.97;;;4.40;99.90;;;;;;5032769;28;20173;-85
2021/12/10 02:21:45;;;;;;;8.27;3.13;;;4.40;99.90;;;;;;5034322;28;20418;-85
2021/12/10 02:24:12;;;;;;;5.30;2.70;;;4.30;99.90;;;;;;5032804;28;20429;-85
2021/12/10 02:26:44;;;;;;;13.57;3.77;;;4.30;99.90;;;;;;5034147;28;20432;-85
2021/12/10 02:29:12;;;;;;;6.90;2.93;;;4.40;99.90;;;;;;5032676;28;20407;-85
2021/12/10 02:31:37;;;;;;;5.33;2.70;;;4.30;99.90;;;;;;5032908;28;20462;-85
2021/12/10 02:34:04;;;;;;;5.87;2.73;;;4.30;99.90;;;;;;5032789;28;20408;-85
2021/12/10 02:36:30;;;;;;;4.07;2.30;;;4.30;99.90;;;;;;5032706;28;20836;-85
2021/12/10 02:38:56;;;;;;;4.83;2.33;;;4.20;99.90;;;;;;5032534;28;20422;-85
2021/12/10 02:41:26;;;;;;;20.90;3.50;;;4.30;99.90;;;;;;5033754;28;20411;-85
2021/12/10 02:43:53;;;;;;;5.03;2.17;;;4.30;99.90;;;;;;5032443;28;20813;-85
2021/12/10 02:46:19;;;;;;;4.27;2.70;;;4.20;99.90;;;;;;5032641;28;20864;-84
2021/12/10 02:48:44;;;;;;;2.80;1.80;;;4.30;99.90;;;;;;5032600;28;20506;-85
2021/12/10 02:51:11;;;;;;;7.10;2.10;;;4.20;99.90;;;;;;5033436;28;20204;-85
2021/12/10 02:53:42;;;;;;;5.90;2.57;;;4.20;99.90;;;;;;5032549;28;20181;-85
2021/12/10 02:56:09;;;;;;;4.20;2.30;;;4.20;99.90;;;;;;5033652;28;20439;-86
2021/12/10 02:58:35;;;;;;;3.60;2.10;;;4.20;99.90;;;;;;5032473;28;20430;-85
2021/12/10 03:01:39;;;;;;;3.93;2.30;;;4.20;99.90;;;;;;5033274;28;20415;-85
2021/12/10 03:04:07;;;;;;;5.80;2.67;;;4.20;99.90;;;;;;5033495;28;20237;-85
2021/12/10 03:06:35;;;;;;;6.57;2.40;;;4.20;99.90;;;;;;5032089;28;21044;-85
2021/12/10 03:09:00;;;;;;;4.70;2.20;;;4.20;99.90;;;;;;5032088;28;20420;-83
2021/12/10 03:11:33;;;;;;;4.60;2.70;;;4.20;99.90;;;;;;5032609;28;20467;-86
2021/12/10 03:14:05;;;;;;;4.47;2.30;;;4.20;99.90;;;;;;5033000;28;20714;-85
2021/12/10 03:16:33;;;;;;;5.30;2.63;;;4.20;99.90;;;;;;5032250;28;20961;-85
2021/12/10 03:18:58;;;;;;;6.27;3.03;;;4.20;99.90;;;;;;5032170;28;20438;-85
2021/12/10 03:21:24;;;;;;;8.87;2.57;;;4.20;99.90;;;;;;5032110;28;20408;-85
2021/12/10 03:23:50;;;;;;;4.93;2.37;;;4.20;99.90;;;;;;5033148;28;20178;-84
2021/12/10 03:26:21;;;;;;;5.37;1.90;;;4.20;99.90;;;;;;5031830;28;20957;-85
2021/12/10 03:28:49;;;;;;;7.20;3.10;;;4.10;99.90;;;;;;5031790;28;20185;-85
2021/12/10 03:31:16;;;;;;;6.83;2.23;;;4.10;99.90;;;;;;5031418;28;20423;-85
2021/12/10 03:33:45;;;;;;;7.13;2.50;;;4.10;99.90;;;;;;5031586;28;20911;-85
2021/12/10 03:36:12;;;;;;;4.20;2.17;;;4.10;99.90;;;;;;5031672;28;20463;-85
2021/12/10 03:38:40;;;;;;;5.80;2.43;;;4.10;99.90;;;;;;5031563;28;20423;-84
2021/12/10 03:41:08;;;;;;;7.90;3.50;;;4.10;99.90;;;;;;5031312;28;20845;-85
2021/12/10 03:43:35;;;;;;;8.50;2.57;;;4.10;99.90;;;;;;5031393;28;20426;-85
2021/12/10 03:46:02;;;;;;;3.53;1.87;;;4.10;99.90;;;;;;5032034;28;20970;-85
2021/12/10 03:48:34;;;;;;;5.30;2.50;;;4.10;99.90;;;;;;5032664;28;20415;-85
2021/12/10 03:51:04;;;;;;;3.87;2.10;;;4.20;99.90;;;;;;5031198;28;20937;-85
2021/12/10 03:53:29;;;;;;;4.63;2.43;;;4.20;99.90;;;;;;5031264;28;20470;-85
2021/12/10 03:56:06;;;;;;;4.70;2.47;;;4.20;99.90;;;;;;5031384;28;20439;-85
2021/12/10 03:58:32;;;;;;;11.23;1.87;;;4.20;99.90;;;;;;5031407;28;20275;-85
2021/12/10 04:00:59;;;;;;;4.37;1.80;;;4.20;99.90;;;;;;5030924;28;20436;-84
2021/12/10 04:03:27;;;;;;;6.30;2.67;;;4.30;99.90;;;;;;5032459;28;20427;-84
2021/12/10 04:05:53;;;;;;;11.53;1.70;;;4.30;99.90;;;;;;5031051;28;20440;-85
2021/12/10 04:08:19;;;;;;;3.73;1.70;;;4.30;99.90;;;;;;5031217;28;20940;-84
2021/12/10 04:10:47;;;;;;;2.90;1.50;;;4.30;99.90;;;;;;5030830;28;20506;-83
2021/12/10 04:13:13;;;;;;;2.70;1.60;;;4.40;99.90;;;;;;5032156;28;20456;-85
2021/12/10 04:15:39;;;;;;;4.17;1.40;;;4.50;99.90;;;;;;5031229;28;20947;-85
2021/12/10 04:18:07;;;;;;;5.30;2.03;;;4.50;99.90;;;;;;5031115;28;20181;-85
2021/12/10 04:20:33;;;;;;;3.30;1.47;;;4.50;99.90;;;;;;5031961;28;20781;-85
2021/12/10 04:23:04;;;;;;;3.00;1.70;;;4.60;99.90;;;;;;5032123;28;20915;-85
2021/12/10 04:25:30;;;;;;;4.67;1.60;;;4.60;99.90;;;;;;5030857;28;20455;-84
2021/12/10 04:28:02;;;;;;;3.03;1.70;;;4.60;99.90;;;;;;5032148;28;20419;-84
2021/12/10 04:30:35;;;;;;;5.87;2.10;;;4.60;99.90;;;;;;5030668;28;20191;-84
2021/12/10 04:33:02;;;;;;;6.33;1.87;;;4.60;99.90;;;;;;5030377;28;20457;-84
2021/12/10 04:35:28;;;;;;;5.13;1.73;;;4.60;99.90;;;;;;5031845;28;20448;-84
2021/12/10 04:37:54;;;;;;;5.53;1.43;;;4.50;99.90;;;;;;5031925;28;20772;-84
2021/12/10 04:40:21;;;;;;;6.43;1.63;;;4.50;99.90;;;;;;5031861;28;20227;-85
2021/12/10 04:42:48;;;;;;;5.93;1.87;;;4.50;99.90;;;;;;5030885;28;20193;-85
2021/12/10 04:45:16;;;;;;;4.50;1.60;;;4.50;99.90;;;;;;5031613;28;20447;-84
2021/12/10 04:47:42;;;;;;;7.73;4.07;;;4.40;99.90;;;;;;5030691;28;20792;-85
2021/12/10 04:50:10;;;;;;;6.30;2.00;;;4.30;99.90;;;;;;5031698;28;20417;-85
2021/12/10 04:52:37;;;;;;;4.80;1.83;;;4.30;99.90;;;;;;5030452;28;20471;-84
2021/12/10 04:55:06;;;;;;;5.37;2.10;;;4.30;99.90;;;;;;5030547;28;20505;-85
2021/12/10 04:57:32;;;;;;;6.70;2.47;;;4.20;99.90;;;;;;5031774;28;20504;-85
2021/12/10 04:59:58;;;;;;;4.87;1.73;;;4.20;99.90;;;;;;5030370;28;20507;-85
2021/12/10 05:02:24;;;;;;;4.17;2.10;;;4.20;99.90;;;;;;5030478;28;20255;-85
2021/12/10 05:04:55;;;;;;;6.27;2.43;;;4.20;99.90;;;;;;5030491;28;20449;-85
2021/12/10 05:07:22;;;;;;;4.60;2.67;;;4.10;99.90;;;;;;5030400;28;20413;-84
2021/12/10 05:09:47;;;;;;;8.10;2.83;;;4.10;99.90;;;;;;5030308;28;20429;-85
2021/12/10 05:12:15;;;;;;;4.80;2.10;;;4.10;99.90;;;;;;5030220;28;20985;-84
2021/12/10 05:14:40;;;;;;;9.90;2.47;;;4.10;99.90;;;;;;5031429;28;20192;-85
2021/12/10 05:17:08;;;;;;;9.53;3.00;;;4.10;99.90;;;;;;5030391;28;20431;-85
2021/12/10 05:19:38;;;;;;;4.70;2.97;;;4.10;99.90;;;;;;5031334;28;20415;-85
2021/12/10 05:22:08;;;;;;;7.07;2.17;;;4.10;99.90;;;;;;5030305;28;20921;-85
2021/12/10 05:24:34;;;;;;;3.50;2.10;;;4.10;99.90;;;;;;5031373;28;20473;-84
2021/12/10 05:27:01;;;;;;;11.30;2.43;;;4.10;99.90;;;;;;5030181;28;20463;-85
2021/12/10 05:29:28;;;;;;;6.23;2.77;;;4.10;99.90;;;;;;5029939;28;20936;-85
2021/12/10 05:31:56;;;;;;;7.47;3.20;;;4.10;99.90;;;;;;5030172;28;20479;-83
2021/12/10 05:34:22;;;;;;;7.40;2.90;;;4.10;99.90;;;;;;5030045;28;20450;-85
2021/12/10 05:36:48;;;;;;;4.37;2.70;;;4.00;99.90;;;;;;5030079;28;20455;-83
2021/12/10 05:39:17;;;;;;;4.17;2.60;;;4.10;99.90;;;;;;5029965;28;21289;-85
2021/12/10 05:41:43;;;;;;;6.50;3.10;;;4.10;99.90;;;;;;5030317;28;20180;-85
2021/12/10 05:44:08;;;;;;;5.10;2.90;;;4.10;99.90;;;;;;5030379;28;20519;-85
2021/12/10 05:46:37;;;;;;;10.80;3.53;;;4.00;99.90;;;;;;5033645;28;20207;-84
2021/12/10 05:49:02;;;;;;;7.63;3.23;;;4.00;99.90;;;;;;5034714;28;20173;-83
2021/12/10 05:51:28;;;;;;;7.10;2.90;;;3.90;99.90;;;;;;5034495;28;20414;-85
2021/12/10 05:53:54;;;;;;;6.60;2.67;;;3.90;99.90;;;;;;5033640;28;20180;-85
2021/12/10 05:56:20;;;;;;;5.43;3.13;;;3.90;99.90;;;;;;5033418;28;20290;-85
2021/12/10 05:58:45;;;;;;;8.30;3.10;;;3.90;99.90;;;;;;5033498;28;20923;-85
2021/12/10 06:01:14;;;;;;;4.17;2.30;;;3.90;99.90;;;;;;5033129;28;20172;-84
2021/12/10 06:03:48;;;;;;;6.00;3.20;;;3.90;99.90;;;;;;5034659;28;20624;-85
2021/12/10 06:06:14;;;;;;;5.63;3.50;;;3.80;99.90;;;;;;5034520;28;20446;-85
2021/12/10 06:08:40;;;;;;;4.10;3.20;;;3.90;99.90;;;;;;5033450;28;20518;-85
2021/12/10 06:11:06;;;;;;;5.63;2.90;;;3.80;99.90;;;;;;5032980;28;20601;-86
2021/12/10 06:13:32;;;;;;;5.83;2.80;;;3.80;99.90;;;;;;5034419;28;20216;-85
2021/12/10 06:15:58;;;;;;;12.70;4.70;;;3.80;99.90;;;;;;5033106;28;20486;-85
2021/12/10 06:18:23;;;;;;;6.00;3.30;;;3.80;99.90;;;;;;5033115;28;20431;-85
2021/12/10 06:20:52;;;;;;;6.90;3.00;;;3.80;99.90;;;;;;5032812;28;20181;-84
2021/12/10 06:23:19;;;;;;;6.53;3.37;;;3.80;99.90;;;;;;5033110;28;20184;-85
2021/12/10 06:25:45;;;;;;;7.43;3.40;;;3.80;99.90;;;;;;5033064;28;20457;-85
2021/12/10 06:28:10;;;;;;;4.80;3.10;;;3.80;99.90;;;;;;5034136;28;20484;-85
2021/12/10 06:30:39;;;;;;;5.87;3.07;;;3.70;99.90;;;;;;5032778;28;20423;-85
2021/12/10 06:33:09;;;;;;;7.90;3.37;;;3.70;99.90;;;;;;5032639;28;20343;-86
2021/12/10 06:35:37;;;;;;;4.90;2.63;;;3.70;99.90;;;;;;5032749;28;21036;-85
2021/12/10 06:38:04;;;;;;;8.57;3.20;;;3.70;99.90;;;;;;5043630;22;20507;-82
2021/12/10 06:40:32;;;;;;;6.70;2.63;;;3.70;99.90;;;;;;5026689;28;20429;-82
2021/12/10 06:42:58;;;;;;;4.30;2.60;;;3.70;99.90;;;;;;5033067;28;20424;-82
2021/12/10 06:45:26;;;;;;;8.00;2.60;;;3.70;99.90;;;;;;5033409;28;20554;-82
2021/12/10 06:47:55;;;;;;;6.40;3.30;;;3.70;99.90;;;;;;5033248;28;20907;-83
2021/12/10 06:50:23;;;;;;;6.40;2.90;;;3.70;99.90;;;;;;5033155;28;20426;-82
2021/12/10 06:52:49;;;;;;;4.90;2.80;;;3.70;99.90;;;;;;5034459;28;20451;-83
2021/12/10 06:55:16;;;;;;;7.23;2.80;;;3.70;99.90;;;;;;5034261;28;20411;-83
2021/12/10 06:57:42;;;;;;;8.67;2.83;;;3.70;99.90;;;;;;5034240;28;20441;-82
2021/12/10 07:00:13;;;;;;;5.80;2.80;;;3.70;99.90;;;;;;5035142;28;20514;-82
2021/12/10 07:02:39;;;;;;;4.27;2.57;;;3.70;99.90;;;;;;5048537;28;20539;-84
2021/12/10 07:05:05;;;;;;;8.50;3.13;;;3.80;99.90;;;;;;5042588;28;20441;-84
2021/12/10 07:07:32;;;;;;;4.50;2.40;;;3.80;99.90;;;;;;5041245;28;20203;-84
2021/12/10 07:10:00;;;;;;;3.60;2.43;;;3.80;99.90;;;;;;5042208;28;20412;-84
2021/12/10 07:12:25;;;;;;;8.63;3.20;;;3.80;99.90;;;;;;5040813;28;20470;-84
2021/12/10 07:14:51;;;;;;;8.03;2.40;;;3.80;99.90;;;;;;5041568;28;20911;-84
2021/12/10 07:17:17;;;;;;;7.13;2.40;;;3.80;99.90;;;;;;5039970;28;20497;-84
2021/12/10 07:19:43;;;;;;;4.90;2.37;;;3.80;99.90;;;;;;5039800;28;20192;-84
2021/12/10 07:22:09;;;;;;;4.63;2.10;;;3.80;99.90;;;;;;5040135;28;20423;-84
2021/12/10 07:24:35;;;;;;;6.33;2.60;;;3.80;99.90;;;;;;5041031;28;20408;-83
2021/12/10 07:27:01;;;;;;;6.70;2.30;;;3.90;99.90;;;;;;5040062;28;20200;-83
2021/12/10 07:29:26;;;;;;;5.40;2.70;;;3.90;99.90;;;;;;5040324;28;20181;-83
2021/12/10 07:31:53;;;;;;;8.80;2.50;;;3.90;99.90;;;;;;5038355;28;20211;-84
2021/12/10 07:34:19;;;;;;;5.57;2.50;;;3.90;99.90;;;;;;5036991;28;20184;-83
2021/12/10 07:36:44;;;;;;;5.63;2.50;;;4.00;99.90;;;;;;5035614;28;20407;-83
2021/12/10 07:39:11;;;;;;;4.77;2.20;;;4.00;99.90;;;;;;5035645;28;20181;-82
2021/12/10 07:41:40;;;;;;;5.17;2.33;;;4.10;99.90;;;;;;5034619;28;20174;-83
2021/12/10 07:44:07;;;;;;;4.00;2.57;;;4.20;99.90;;;;;;5034447;28;20426;-83
2021/12/10 07:46:34;;;;;;;5.20;2.37;;;4.20;99.90;;;;;;5035324;28;20465;-83
2021/12/10 07:49:00;;;;;;;6.40;2.40;;;4.30;99.90;;;;;;5035204;28;20490;-83
2021/12/10 07:51:29;;;;;;;3.60;2.17;;;4.30;99.90;;;;;;5035202;28;20414;-83
2021/12/10 07:53:57;;;;;;;6.53;2.83;;;4.40;99.90;;;;;;5033409;28;20502;-83
2021/12/10 07:56:25;;;;;;;5.00;2.30;;;4.40;99.90;;;;;;5034742;28;20900;-83
2021/12/10 07:58:51;;;;;;;5.47;2.10;;;4.50;99.90;;;;;;5033778;28;20582;-83
2021/12/10 08:01:26;;;;;;;5.33;2.67;;;4.50;99.90;;;;;;5033019;28;20455;-83
2021/12/10 08:03:52;;;;;;;8.33;2.60;;;4.60;99.90;;;;;;5033167;28;20917;-82
2021/12/10 08:06:20;;;;;;;4.87;1.97;;;4.60;99.90;;;;;;5033415;28;20425;-82
2021/12/10 08:08:46;;;;;;;6.87;2.67;;;4.60;99.90;;;;;;5032417;28;20465;-83
2021/12/10 08:11:12;;;;;;;6.97;2.70;;;4.70;99.90;;;;;;5033177;28;20429;-87
2021/12/10 08:13:38;;;;;;;5.77;2.50;;;4.70;99.90;;;;;;5033343;28;21023;-87
2021/12/10 08:16:04;;;;;;;3.97;2.30;;;4.70;99.90;;;;;;5032929;28;20417;-87
2021/12/10 08:18:30;;;;;;;4.87;2.20;;;4.70;99.90;;;;;;5035779;28;20638;-87
2021/12/10 08:20:56;;;;;;;5.33;2.00;;;4.80;99.90;;;;;;5036210;28;20413;-88
2021/12/10 08:23:22;;;;;;;6.27;2.80;;;4.80;99.90;;;;;;5034746;28;20239;-87
2021/12/10 08:25:48;;;;;;;4.77;2.10;;;4.80;99.90;;;;;;5034765;28;21005;-87
2021/12/10 08:28:15;;;;;;;4.97;2.90;;;4.90;99.90;;;;;;5035086;28;20734;-87
2021/12/10 08:30:42;;;;;;;7.03;2.47;;;4.90;99.90;;;;;;5034669;28;20416;-87
2021/12/10 08:33:12;;;;;;;5.23;2.60;;;4.90;99.90;;;;;;5033669;28;20520;-87
2021/12/10 08:35:39;;;;;;;7.77;2.30;;;4.90;99.90;;;;;;5033853;28;20425;-87
2021/12/10 08:38:05;;;;;;;4.47;2.20;;;5.00;99.90;;;;;;5035597;28;20460;-87
2021/12/10 08:40:38;;;;;;;3.90;2.07;;;5.00;99.90;;;;;;5034166;28;20499;-86
2021/12/10 08:43:05;;;;;;;4.07;2.20;;;5.00;99.90;;;;;;5034228;28;20546;-87
2021/12/10 08:45:31;;;;;;;5.90;2.40;;;5.00;99.90;;;;;;5033542;28;20426;-87
2021/12/10 08:47:58;;;;;;;5.93;3.10;;;5.00;99.90;;;;;;5033789;28;20455;-87
2021/12/10 08:50:26;;;;;;;5.73;2.77;;;5.00;99.90;;;;;;5033366;28;20460;-87
2021/12/10 08:52:57;;;;;;;7.40;2.83;;;5.00;99.90;;;;;;5032478;28;20472;-87
2021/12/10 08:55:25;;;;;;;5.80;3.33;;;5.10;99.90;;;;;;5032446;28;20464;-87
2021/12/10 08:57:50;;;;;;;6.77;3.23;;;5.10;99.90;;;;;;5035026;28;20510;-87
2021/12/10 09:00:20;;;;;;;4.07;2.40;;;5.10;99.90;;;;;;5032429;28;20530;-87
2021/12/10 09:02:47;;;;;;;5.60;3.60;;;5.20;99.90;;;;;;5032479;28;20687;-87
2021/12/10 09:05:13;;;;;;;5.90;3.20;;;5.20;99.90;;;;;;5032426;28;20504;-87
2021/12/10 09:07:42;;;;;;;5.13;3.23;;;5.20;99.90;;;;;;5032214;28;20448;-87
2021/12/10 09:10:08;;;;;;;5.57;3.47;;;5.10;99.90;;;;;;5032799;28;20212;-87
2021/12/10 09:12:36;;;;;;;5.60;2.87;;;5.10;99.90;;;;;;5032713;28;20474;-87
2021/12/10 09:15:04;;;;;;;6.53;3.63;;;5.10;99.90;;;;;;5032633;28;20449;-86
2021/12/10 09:17:31;;;;;;;8.03;3.17;;;5.00;99.90;;;;;;5032254;28;20438;-87
2021/12/10 09:20:01;;;;;;;7.07;3.27;;;5.00;99.90;;;;;;5034703;28;20414;-87
2021/12/10 09:22:27;;;;;;;7.30;4.20;;;5.10;99.90;;;;;;5037207;28;20415;-87
2021/12/10 09:24:55;;;;;;;7.73;3.37;;;5.10;99.90;;;;;;5037167;28;20428;-87
2021/12/10 09:27:23;;;;;;;6.77;2.90;;;5.10;99.90;;;;;;5035920;28;20483;-88
2021/12/10 09:29:52;;;;;;;7.90;3.80;;;5.10;99.90;;;;;;5035805;28;20460;-87
2021/12/10 09:32:20;;;;;;;9.07;4.10;;;5.10;99.90;;;;;;5035220;28;20471;-87
2021/12/10 09:34:48;;;;;;;6.23;3.40;;;5.10;99.90;;;;;;5035436;28;20420;-87
2021/12/10 09:37:14;;;;;;;5.97;3.60;;;5.20;99.90;;;;;;5036301;28;20456;-86
2021/12/10 09:39:41;;;;;;;7.90;3.83;;;5.20;99.90;;;;;;5036485;28;20427;-87
2021/12/10 09:42:07;;;;;;;6.07;3.63;;;5.40;99.90;;;;;;5037065;28;20484;-87
2021/12/10 09:44:34;;;;;;;6.70;3.57;;;5.50;99.90;;;;;;5035481;28;20453;-88
2021/12/10 09:47:00;;;;;;;9.17;3.60;;;5.50;99.90;;;;;;5035199;28;20520;-86
2021/12/10 09:49:27;;;;;;;6.17;3.60;;;5.50;99.90;;;;;;5036063;28;20494;-88
2021/12/10 09:51:56;;;;;;;8.10;3.37;;;5.60;99.90;;;;;;5031478;28;20473;-88
2021/12/10 09:54:25;;;;;;;12.00;3.97;;;5.50;99.90;;;;;;5034503;28;20431;-88
2021/12/10 09:57:11;;;;;;;4.77;3.43;;;5.50;99.90;;;;;;5035476;28;20841;-86
2021/12/10 09:59:40;;;;;;;6.50;3.20;;;5.50;99.90;;;;;;5035443;28;20406;-87
2021/12/10 10:02:07;;;;;;;5.23;3.03;;;5.40;99.90;;;;;;5034262;28;20436;-87
2021/12/10 10:04:35;;;;;;;5.33;3.30;;;5.40;99.90;;;;;;5034204;28;20484;-88
2021/12/10 10:07:12;;;;;;;5.00;3.00;;;5.40;99.90;;;;;;5034651;28;20452;-87
2021/12/10 10:09:41;;;;;;;6.90;4.10;;;5.50;99.90;;;;;;5034175;28;20834;-87
2021/12/10 10:12:13;;;;;;;8.67;2.87;;;5.50;99.90;;;;;;5033793;28;20475;-87
2021/12/10 10:14:40;;;;;;;4.40;2.90;;;5.40;99.90;;;;;;5034805;28;20895;-87
2021/12/10 10:17:08;;;;;;;5.80;3.30;;;5.50;99.90;;;;;;5034916;28;20845;-87
2021/12/10 10:19:34;;;;;;;5.87;4.67;;;5.50;99.90;;;;;;5034909;28;20410;-87
2021/12/10 10:22:03;;;;;;;5.00;2.73;;;5.50;99.90;;;;;;5034598;28;20431;-87
2021/12/10 10:24:29;;;;;;;5.47;3.10;;;5.60;99.90;;;;;;5034197;28;20429;-87
2021/12/10 10:27:02;;;;;;;11.60;4.17;;;5.70;99.90;;;;;;5032919;28;21084;-87
2021/12/10 10:29:32;;;;;;;6.60;2.93;;;5.70;99.90;;;;;;5028507;28;20435;-88
2021/12/10 10:32:10;;;;;;;5.57;2.90;;;5.60;99.90;;;;;;5023400;28;20505;-88
2021/12/10 10:34:40;;;;;;;4.10;2.37;;;5.70;99.90;;;;;;5033196;28;20843;-90
2021/12/10 10:37:06;;;;;;;7.10;3.43;;;5.70;99.90;;;;;;5033206;28;20483;-89
2021/12/10 10:39:34;;;;;;;4.40;2.57;;;5.70;99.90;;;;;;5033076;28;20824;-88
2021/12/10 10:42:03;;;;;;;6.27;3.10;;;5.60;99.90;;;;;;5033321;28;20433;-90
2021/12/10 10:44:29;;;;;;;4.67;2.80;;;5.60;99.90;;;;;;5033005;28;20422;-88
2021/12/10 10:46:57;;;;;;;3.83;2.53;;;5.60;99.90;;;;;;5033047;28;20528;-86
2021/12/10 10:49:51;;;;;;;7.40;3.33;;;5.60;99.90;;;;;;5033665;28;20225;-87
2021/12/10 10:52:39;;;;;;;4.90;2.73;;;5.70;99.90;;;;;;5030861;28;21019;-88
2021/12/10 10:55:11;;;;;;;6.80;3.57;;;5.80;99.90;;;;;;5030286;28;20414;-90
2021/12/10 10:57:49;;;;;;;6.30;3.50;;;5.80;99.90;;;;;;5030181;28;20443;-86
2021/12/10 11:00:29;;;;;;;5.63;3.07;;;5.90;99.90;;;;;;5035766;28;20415;-88
2021/12/10 11:03:01;;;;;;;4.80;2.87;;;5.90;99.90;;;;;;5030825;28;20422;-88
2021/12/10 11:05:28;;;;;;;9.60;3.20;;;6.00;99.90;;;;;;5030620;28;20430;-88
2021/12/10 11:07:59;;;;;;;6.30;4.17;;;6.10;99.90;;;;;;5030518;28;20439;-88
2021/12/10 11:10:34;;;;;;;7.90;3.40;;;6.10;99.90;;;;;;5030427;28;20498;-88
2021/12/10 11:13:09;;;;;;;5.03;3.27;;;6.10;99.90;;;;;;5013840;28;21004;-88
2021/12/10 11:15:36;;;;;;;6.70;3.33;;;6.30;99.90;;;;;;5014003;28;20415;-87
2021/12/10 11:18:02;;;;;;;5.43;2.90;;;6.30;99.90;;;;;;5014827;28;20438;-88
2021/12/10 11:20:34;;;;;;;3.83;2.43;;;6.30;99.90;;;;;;5030224;28;20423;-88
2021/12/10 11:23:04;;;;;;;4.77;2.20;;;6.40;99.90;;;;;;5014758;28;20431;-88
2021/12/10 11:25:49;;;;;;;4.83;2.57;;;6.40;99.90;;;;;;5029646;28;20416;-88
2021/12/10 11:28:18;;;;;;;7.20;2.97;;;6.30;99.90;;;;;;5029617;28;20458;-88
2021/12/10 11:30:50;;;;;;;3.63;2.30;;;6.30;99.90;;;;;;5029110;28;20437;-88
2021/12/10 11:33:20;;;;;;;5.50;2.40;;;6.30;99.90;;;;;;5019675;28;20470;-88
2021/12/10 11:35:54;;;;;;;7.20;2.60;;;6.30;99.90;;;;;;5013327;28;20435;-88
2021/12/10 11:38:31;;;;;;;3.80;2.70;;;6.30;99.90;;;;;;5032147;28;20501;-88
2021/12/10 11:41:01;;;;;;;6.40;3.07;;;6.30;99.90;;;;;;5033887;28;20461;-87
2021/12/10 11:47:39;;;;;;;4.93;2.67;;;6.60;99.90;;;;;;5034273;28;20402;-88
2021/12/10 11:49:38;;;;;;;4.37;2.77;;;6.60;99.90;;;;;;5009601;28;20427;-88
2021/12/10 11:52:08;;;;;;;7.10;2.57;;;6.60;99.90;;;;;;5014689;28;20464;-88
2021/12/10 11:54:39;;;;;;;8.23;3.00;;;6.60;99.90;;;;;;5021533;28;20415;-88
2021/12/10 11:57:11;;;;;;;3.33;2.43;;;6.60;99.90;;;;;;5032857;28;20481;-88
2021/12/10 12:00:05;;;;;;;4.80;2.43;;;6.70;99.90;;;;;;5034097;28;20418;-88
2021/12/10 12:02:53;;;;;;;5.80;3.13;;;6.70;99.90;;;;;;5032899;28;20940;-88
2021/12/10 12:05:24;;;;;;;5.33;2.57;;;6.70;99.90;;;;;;5032990;28;20465;-88
2021/12/10 12:07:52;;;;;;;6.07;2.40;;;6.70;99.90;;;;;;5033275;28;20439;-88
2021/12/10 12:10:32;;;;;;;5.50;2.43;;;6.70;99.90;;;;;;5034723;28;20411;-88
2021/12/10 12:13:35;;;;;;;4.07;2.80;;;6.60;99.90;;;;;;5033026;28;20484;-88
2021/12/10 12:16:03;;;;;;;5.10;2.43;;;6.60;99.90;;;;;;5034123;28;20411;-86
2021/12/10 12:18:31;;;;;;;3.73;2.40;;;6.60;99.90;;;;;;5033188;28;20446;-87
2021/12/10 12:20:59;;;;;;;5.23;2.27;;;6.50;99.90;;;;;;5032995;28;20433;-87
2021/12/10 12:26:29;;;;;;;4.93;2.50;;;6.20;99.90;;;;;;5000742;28;20486;-87
2021/12/10 12:29:02;;;;;;;5.10;3.10;;;6.20;99.90;;;;;;5033236;28;20525;-86
2021/12/10 12:31:40;;;;;;;3.30;2.10;;;6.30;99.90;;;;;;5033043;28;20470;-87
2021/12/10 12:34:13;;;;;;;9.17;3.00;;;6.30;99.90;;;;;;5032836;28;20989;-87
2021/12/10 12:36:51;;;;;;;3.70;2.10;;;6.30;99.90;;;;;;5032695;28;20430;-87
2021/12/10 12:39:42;;;;;;;4.00;2.20;;;6.40;99.90;;;;;;5035388;28;20438;-87
2021/12/10 12:42:23;;;;;;;6.60;2.73;;;6.40;99.90;;;;;;5067137;22;20486;-78
2021/12/10 12:44:59;;;;;;;10.60;3.70;;;6.50;99.90;;;;;;5029554;28;20435;-77
2021/12/10 12:47:29;;;;;;;6.10;2.83;;;6.50;99.90;;;;;;5033959;28;20438;-78
2021/12/10 12:50:04;;;;;;;3.77;2.20;;;6.60;99.90;;;;;;5031653;28;20506;-77
2021/12/10 12:52:48;;;;;;;5.37;3.27;;;6.40;99.90;;;;;;5033041;28;21225;-77
2021/12/10 12:55:38;;;;;;;4.47;2.73;;;6.40;99.90;;;;;;5036575;28;20431;-77
2021/12/10 12:58:18;;;;;;;5.80;3.27;;;6.30;99.90;;;;;;5036355;28;20932;-78
2021/12/10 13:01:02;;;;;;;7.20;3.27;;;6.20;99.90;;;;;;5037214;28;20768;-78
2021/12/10 13:03:43;;;;;;;6.93;3.03;;;6.20;99.90;;;;;;5037388;28;20818;-78
2021/12/10 13:06:24;;;;;;;5.67;2.67;;;6.20;99.90;;;;;;5035731;28;20437;-78
2021/12/10 13:09:11;;;;;;;7.30;3.97;;;6.20;99.90;;;;;;5035884;28;20425;-77
2021/12/10 13:12:05;;;;;;;4.23;2.90;;;6.10;99.90;;;;;;5035714;28;21038;-78
2021/12/10 13:14:51;;;;;;;4.53;2.60;;;6.00;99.90;;;;;;5036012;28;20892;-78
2021/12/10 13:17:23;;;;;;;4.07;2.57;;;6.00;99.90;;;;;;5036263;28;20430;-79
2021/12/10 13:19:52;;;;;;;4.30;2.50;;;5.90;99.90;;;;;;5033545;28;20429;-79
2021/12/10 13:22:25;;;;;;;4.80;2.97;;;5.70;99.90;;;;;;5037140;28;21031;-78
2021/12/10 13:24:55;;;;;;;9.30;2.97;;;5.70;99.90;;;;;;5036567;28;20506;-77